createdAt,value
2019-02-23T00:00:09.301Z,6.90
2019-02-23T00:02:37.772Z,6.90
2019-02-23T00:05:06.228Z,6.90
2019-02-23T00:07:34.612Z,6.90
2019-02-23T00:10:02.993Z,6.90
2019-02-23T00:12:31.386Z,6.90
2019-02-23T00:14:59.795Z,6.90
2019-02-23T00:17:28.229Z,6.80
2019-02-23T00:19:56.604Z,6.70
2019-02-23T00:22:24.992Z,6.80
2019-02-23T00:24:53.385Z,6.80
2019-02-23T00:27:21.771Z,6.70
2019-02-23T00:29:50.150Z,6.60
2019-02-23T00:32:18.547Z,6.50
2019-02-23T00:34:46.938Z,6.50
2019-02-23T00:37:15.335Z,6.40
2019-02-23T00:39:43.963Z,6.50
2019-02-23T00:42:12.357Z,6.40
2019-02-23T00:44:40.816Z,6.40
2019-02-23T00:47:09.211Z,6.40
2019-02-23T00:49:37.840Z,6.30
2019-02-23T00:52:06.309Z,6.30
2019-02-23T00:54:34.700Z,6.20
2019-02-23T00:57:03.108Z,6.30
2019-02-23T00:59:31.497Z,6.30
2019-02-23T01:01:59.903Z,6.20
2019-02-23T01:04:28.288Z,6.10
2019-02-23T01:06:56.697Z,6.10
2019-02-23T01:09:25.089Z,6.10
2019-02-23T01:11:53.475Z,6.10
2019-02-23T01:14:21.943Z,6.10
2019-02-23T01:16:50.335Z,6.00
2019-02-23T01:19:18.776Z,5.90
2019-02-23T01:21:47.164Z,6.00
2019-02-23T01:24:15.556Z,5.90
2019-02-23T01:26:44.018Z,5.90
2019-02-23T01:29:12.409Z,5.80
2019-02-23T01:31:40.805Z,5.90
2019-02-23T01:34:09.204Z,5.80
2019-02-23T01:36:37.596Z,5.70
2019-02-23T01:39:06.268Z,5.70
2019-02-23T01:41:34.727Z,5.60
2019-02-23T01:44:03.425Z,5.70
2019-02-23T01:46:31.874Z,5.70
2019-02-23T01:49:00.268Z,5.60
2019-02-23T01:51:29.762Z,5.70
2019-02-23T01:53:58.223Z,5.60
2019-02-23T01:56:26.610Z,5.60
2019-02-23T01:58:55.019Z,5.60
2019-02-23T02:01:23.398Z,5.60
2019-02-23T02:03:51.864Z,5.50
2019-02-23T02:06:20.257Z,5.50
2019-02-23T02:08:48.651Z,5.50
2019-02-23T02:11:17.104Z,5.40
2019-02-23T02:13:45.507Z,5.50
2019-02-23T02:16:13.899Z,5.50
2019-02-23T02:18:42.296Z,5.50
2019-02-23T02:21:10.689Z,5.40
2019-02-23T02:23:39.087Z,5.30
2019-02-23T02:26:07.476Z,5.30
2019-02-23T02:28:35.952Z,5.20
2019-02-23T02:31:04.344Z,5.20
2019-02-23T02:33:32.731Z,5.30
2019-02-23T02:36:01.116Z,5.20
2019-02-23T02:38:29.525Z,5.20
2019-02-23T02:40:57.910Z,5.20
2019-02-23T02:43:26.305Z,5.20
2019-02-23T02:45:54.691Z,5.20
2019-02-23T02:48:23.090Z,5.20
2019-02-23T02:50:51.483Z,5.20
2019-02-23T02:53:19.868Z,5.00
2019-02-23T02:55:48.264Z,5.00
2019-02-23T02:58:16.667Z,5.00
2019-02-23T03:00:45.065Z,4.90
2019-02-23T03:03:13.459Z,4.90
2019-02-23T03:05:42.008Z,4.80
2019-02-23T03:08:10.404Z,4.90
2019-02-23T03:10:38.803Z,4.90
2019-02-23T03:13:07.189Z,4.80
2019-02-23T03:15:35.597Z,4.80
2019-02-23T03:18:04.008Z,4.70
2019-02-23T03:20:36.577Z,4.70
2019-02-23T03:23:02.732Z,4.70
2019-02-23T03:25:31.124Z,4.70
2019-02-23T03:27:59.523Z,4.60
2019-02-23T03:30:27.933Z,4.60
2019-02-23T03:32:56.324Z,4.60
2019-02-23T03:35:24.724Z,4.70
2019-02-23T03:37:53.190Z,4.60
2019-02-23T03:40:21.587Z,4.70
2019-02-23T03:42:52.930Z,4.60
2019-02-23T03:45:21.320Z,4.50
2019-02-23T03:47:49.721Z,4.50
2019-02-23T03:50:18.141Z,4.50
2019-02-23T03:52:46.515Z,4.50
2019-02-23T03:55:14.988Z,4.40
2019-02-23T03:57:43.382Z,4.40
2019-02-23T04:00:11.936Z,4.30
2019-02-23T04:02:40.420Z,4.30
2019-02-23T04:05:08.952Z,4.30
2019-02-23T04:07:37.339Z,4.30
2019-02-23T04:10:09.336Z,4.20
2019-02-23T04:12:37.816Z,4.20
2019-02-23T04:15:07.249Z,4.20
2019-02-23T04:17:35.632Z,4.20
2019-02-23T04:20:05.782Z,4.10
2019-02-23T04:22:34.163Z,4.10
2019-02-23T04:25:02.570Z,4.10
2019-02-23T04:27:30.974Z,4.10
2019-02-23T04:29:59.362Z,4.20
2019-02-23T04:32:27.744Z,4.20
2019-02-23T04:34:56.138Z,4.10
2019-02-23T04:37:24.580Z,4.20
2019-02-23T04:39:52.960Z,4.10
2019-02-23T04:42:21.364Z,4.10
2019-02-23T04:44:49.745Z,4.10
2019-02-23T04:47:18.145Z,4.10
2019-02-23T04:49:52.944Z,3.90
2019-02-23T04:52:21.351Z,4.00
2019-02-23T04:54:49.802Z,3.90
2019-02-23T04:57:18.199Z,3.90
2019-02-23T04:59:46.579Z,3.90
2019-02-23T05:02:15.049Z,3.80
2019-02-23T05:04:43.456Z,3.80
2019-02-23T05:07:11.869Z,3.70
2019-02-23T05:09:40.271Z,3.70
2019-02-23T05:12:08.726Z,3.60
2019-02-23T05:14:37.119Z,3.70
2019-02-23T05:17:05.517Z,3.60
2019-02-23T05:19:33.908Z,3.70
2019-02-23T05:22:02.313Z,3.50
2019-02-23T05:24:30.708Z,3.50
2019-02-23T05:26:59.108Z,3.50
2019-02-23T05:29:27.498Z,3.60
2019-02-23T05:31:55.907Z,3.60
2019-02-23T05:34:24.296Z,3.60
2019-02-23T05:36:52.708Z,3.50
2019-02-23T05:39:21.096Z,3.50
2019-02-23T05:41:49.497Z,3.50
2019-02-23T05:44:17.885Z,3.50
2019-02-23T05:46:46.285Z,3.50
2019-02-23T05:49:14.672Z,3.50
2019-02-23T05:51:43.115Z,3.50
2019-02-23T05:54:11.597Z,3.50
2019-02-23T05:56:39.985Z,3.50
2019-02-23T05:59:08.369Z,3.40
2019-02-23T06:01:36.762Z,3.40
2019-02-23T06:04:05.168Z,3.50
2019-02-23T06:06:33.566Z,3.40
2019-02-23T06:09:01.972Z,3.40
2019-02-23T06:11:30.353Z,3.50
2019-02-23T06:13:58.752Z,3.40
2019-02-23T06:16:27.153Z,3.30
2019-02-23T06:18:55.570Z,3.30
2019-02-23T06:21:23.956Z,3.30
2019-02-23T06:23:52.357Z,3.30
2019-02-23T06:26:20.753Z,3.30
2019-02-23T06:28:49.163Z,3.30
2019-02-23T06:31:17.622Z,3.30
2019-02-23T06:33:46.032Z,3.20
2019-02-23T06:36:14.621Z,3.20
2019-02-23T06:38:43.022Z,3.10
2019-02-23T06:41:11.436Z,3.10
2019-02-23T06:43:39.865Z,3.10
2019-02-23T06:46:08.252Z,3.20
2019-02-23T06:48:37.061Z,3.20
2019-02-23T06:51:05.437Z,3.20
2019-02-23T06:53:34.264Z,3.20
2019-02-23T06:56:02.633Z,3.20
2019-02-23T06:58:31.040Z,3.20
2019-02-23T07:00:59.428Z,3.20
2019-02-23T07:03:27.837Z,3.30
2019-02-23T07:05:56.220Z,3.30
2019-02-23T07:08:24.612Z,3.30
2019-02-23T07:10:53.000Z,3.40
2019-02-23T07:13:21.388Z,3.40
2019-02-23T07:15:49.772Z,3.40
2019-02-23T07:18:18.179Z,3.60
2019-02-23T07:20:46.556Z,3.90
2019-02-23T07:23:14.948Z,4.30
2019-02-23T07:25:43.335Z,4.70
2019-02-23T07:28:11.732Z,4.80
2019-02-23T07:30:40.188Z,5.20
2019-02-23T07:33:08.591Z,5.60
2019-02-23T07:35:36.972Z,6.00
2019-02-23T07:38:05.655Z,6.20
2019-02-23T07:40:34.048Z,6.40
2019-02-23T07:43:02.437Z,6.70
2019-02-23T07:45:30.836Z,7.00
2019-02-23T07:47:59.219Z,6.90
2019-02-23T07:50:27.620Z,6.60
2019-02-23T07:52:56.024Z,7.20
2019-02-23T07:55:24.407Z,7.40
2019-02-23T07:57:52.790Z,7.80
2019-02-23T08:00:21.192Z,7.60
2019-02-23T08:02:49.583Z,7.70
2019-02-23T08:05:17.985Z,7.80
2019-02-23T08:07:46.381Z,7.70
2019-02-23T08:10:14.781Z,8.10
2019-02-23T08:12:43.219Z,8.50
2019-02-23T08:15:12.129Z,8.50
2019-02-23T08:17:40.538Z,8.50
2019-02-23T08:20:10.583Z,8.80
2019-02-23T08:22:38.992Z,9.00
2019-02-23T08:25:14.700Z,9.40
2019-02-23T08:27:43.107Z,9.30
2019-02-23T08:30:16.076Z,9.40
2019-02-23T08:32:44.481Z,9.50
2019-02-23T08:35:12.901Z,9.70
2019-02-23T08:37:41.291Z,9.50
2019-02-23T08:40:14.340Z,9.60
2019-02-23T08:42:42.726Z,9.90
2019-02-23T08:45:11.119Z,9.80
2019-02-23T08:47:39.580Z,10.10
2019-02-23T08:50:13.280Z,10.30
2019-02-23T08:52:49.165Z,10.60
2019-02-23T08:55:11.792Z,10.80
2019-02-23T08:57:40.207Z,10.80
2019-02-23T09:00:11.690Z,11.10
2019-02-23T09:02:40.084Z,11.30
2019-02-23T09:05:10.035Z,11.60
2019-02-23T09:07:38.441Z,11.40
2019-02-23T09:10:09.588Z,11.10
2019-02-23T09:12:37.998Z,11.30
2019-02-23T09:15:07.748Z,11.60
2019-02-23T09:17:36.153Z,11.20
2019-02-23T09:20:05.999Z,11.70
2019-02-23T09:22:34.385Z,11.20
2019-02-23T09:25:02.789Z,11.50
2019-02-23T09:27:31.188Z,12.00
2019-02-23T09:29:59.621Z,11.20
2019-02-23T09:32:28.029Z,10.50
2019-02-23T09:34:56.424Z,10.30
2019-02-23T09:37:24.830Z,10.80
2019-02-23T09:39:53.228Z,11.10
2019-02-23T09:42:21.641Z,11.40
2019-02-23T09:44:50.146Z,11.50
2019-02-23T09:47:18.601Z,11.80
2019-02-23T09:49:47.020Z,11.70
2019-02-23T09:52:15.426Z,11.20
2019-02-23T09:54:43.810Z,11.00
2019-02-23T09:57:12.214Z,11.40
2019-02-23T09:59:40.593Z,11.40
2019-02-23T10:02:09.011Z,11.30
2019-02-23T10:04:37.407Z,11.80
2019-02-23T10:07:05.809Z,12.10
2019-02-23T10:09:34.224Z,11.50
2019-02-23T10:12:02.652Z,11.90
2019-02-23T10:14:31.045Z,12.10
2019-02-23T10:16:59.461Z,12.40
2019-02-23T10:19:27.946Z,11.70
2019-02-23T10:21:56.349Z,11.40
2019-02-23T10:24:24.760Z,11.00
2019-02-23T10:26:53.171Z,11.30
2019-02-23T10:29:22.168Z,11.90
2019-02-23T10:31:50.600Z,11.30
2019-02-23T10:34:18.998Z,11.60
2019-02-23T10:36:47.404Z,11.80
2019-02-23T10:39:16.196Z,11.50
2019-02-23T10:41:44.606Z,11.80
2019-02-23T10:44:13.000Z,11.40
2019-02-23T10:46:41.401Z,11.40
2019-02-23T10:49:09.796Z,11.10
2019-02-23T10:51:38.201Z,11.40
2019-02-23T10:54:06.667Z,11.70
2019-02-23T10:56:35.061Z,11.80
2019-02-23T10:59:03.536Z,12.60
2019-02-23T11:01:31.936Z,12.70
2019-02-23T11:04:00.358Z,11.90
2019-02-23T11:06:28.816Z,11.80
2019-02-23T11:08:57.221Z,12.10
2019-02-23T11:11:25.684Z,11.70
2019-02-23T11:13:54.103Z,11.90
2019-02-23T11:16:22.505Z,12.30
2019-02-23T11:18:50.948Z,12.00
2019-02-23T11:21:19.331Z,12.10
2019-02-23T11:23:47.739Z,11.70
2019-02-23T11:26:16.136Z,12.50
2019-02-23T11:28:44.557Z,12.60
2019-02-23T11:31:12.952Z,12.50
2019-02-23T11:33:41.367Z,12.30
2019-02-23T11:36:09.780Z,13.10
2019-02-23T11:38:38.201Z,13.40
2019-02-23T11:41:06.588Z,12.80
2019-02-23T11:43:35.005Z,12.40
2019-02-23T11:46:03.406Z,12.80
2019-02-23T11:48:31.803Z,13.60
2019-02-23T11:51:00.486Z,13.80
2019-02-23T11:53:28.942Z,14.30
2019-02-23T11:55:57.343Z,13.50
2019-02-23T11:58:25.820Z,13.50
2019-02-23T12:00:54.220Z,13.40
2019-02-23T12:03:22.644Z,14.10
2019-02-23T12:05:51.048Z,14.70
2019-02-23T12:08:19.440Z,14.40
2019-02-23T12:10:47.851Z,14.00
2019-02-23T12:13:16.260Z,14.30
2019-02-23T12:15:44.681Z,14.20
2019-02-23T12:18:13.373Z,14.20
2019-02-23T12:20:41.768Z,14.50
2019-02-23T12:23:10.177Z,15.00
2019-02-23T12:25:38.629Z,14.80
2019-02-23T12:28:07.018Z,15.20
2019-02-23T12:30:35.500Z,14.70
2019-02-23T12:33:03.909Z,13.70
2019-02-23T12:35:32.304Z,13.80
2019-02-23T12:38:00.695Z,14.40
2019-02-23T12:40:29.104Z,14.50
2019-02-23T12:42:57.494Z,14.30
2019-02-23T12:45:28.309Z,14.50
2019-02-23T12:47:56.000Z,14.70
2019-02-23T12:50:24.388Z,14.60
2019-02-23T12:52:52.782Z,15.20
2019-02-23T12:55:21.265Z,15.10
2019-02-23T12:57:49.666Z,15.30
2019-02-23T13:00:19.000Z,14.70
2019-02-23T13:02:47.435Z,15.10
2019-02-23T13:05:15.872Z,14.80
2019-02-23T13:07:44.254Z,14.70
2019-02-23T13:10:13.393Z,14.50
2019-02-23T13:13:02.587Z,14.20
2019-02-23T13:15:34.060Z,14.20
2019-02-23T13:18:22.734Z,13.40
2019-02-23T13:21:03.033Z,13.70
2019-02-23T13:23:46.407Z,14.20
2019-02-23T13:26:32.287Z,14.10
2019-02-23T13:29:21.476Z,13.50
2019-02-23T13:32:14.064Z,13.00
2019-02-23T13:35:00.684Z,13.70
2019-02-23T13:37:35.081Z,14.20
2019-02-23T13:40:21.190Z,14.40
2019-02-23T13:43:13.660Z,14.50
2019-02-23T13:45:56.928Z,14.50
2019-02-23T13:48:53.676Z,14.50
2019-02-23T13:51:34.182Z,14.50
2019-02-23T13:54:40.341Z,14.60
2019-02-23T13:57:27.812Z,14.40
2019-02-23T14:00:04.970Z,14.40
2019-02-23T14:02:51.336Z,13.90
2019-02-23T14:05:39.188Z,13.90
2019-02-23T14:08:43.959Z,14.20
2019-02-23T14:11:32.201Z,14.00
2019-02-23T14:14:16.065Z,13.60
2019-02-23T14:16:53.250Z,14.10
2019-02-23T14:19:39.513Z,13.80
2019-02-23T14:22:27.581Z,13.60
2019-02-23T14:25:19.839Z,13.10
2019-02-23T14:27:53.863Z,12.90
2019-02-23T14:30:34.432Z,13.60
2019-02-23T14:33:27.373Z,13.40
2019-02-23T14:36:19.763Z,13.30
2019-02-23T14:39:07.916Z,13.40
2019-02-23T14:41:50.773Z,13.10
2019-02-23T14:44:34.199Z,12.90
2019-02-23T14:47:11.713Z,13.30
2019-02-23T14:49:45.866Z,13.00
2019-02-23T14:52:38.371Z,13.00
2019-02-23T14:55:34.100Z,12.80
2019-02-23T14:58:05.577Z,12.90
2019-02-23T15:00:53.513Z,12.90
2019-02-23T15:03:36.940Z,12.70
2019-02-23T15:06:11.235Z,12.60
2019-02-23T15:08:54.686Z,12.40
2019-02-23T15:11:41.367Z,12.20
2019-02-23T15:14:24.947Z,12.10
2019-02-23T15:17:02.139Z,12.10
2019-02-23T15:19:48.760Z,12.30
2019-02-23T15:22:36.767Z,12.40
2019-02-23T15:25:27.200Z,12.30
2019-02-23T15:28:35.700Z,12.00
2019-02-23T15:31:08.273Z,11.90
2019-02-23T15:33:48.688Z,11.90
2019-02-23T15:36:38.254Z,12.10
2019-02-23T15:39:12.823Z,12.10
2019-02-23T15:42:00.940Z,12.20
2019-02-23T15:44:35.415Z,11.90
2019-02-23T15:47:15.168Z,12.10
2019-02-23T15:49:43.604Z,11.90
2019-02-23T15:52:12.025Z,11.70
2019-02-23T15:54:40.460Z,11.80
2019-02-23T15:57:08.893Z,11.70
2019-02-23T15:59:37.302Z,11.50
2019-02-23T16:02:05.963Z,11.40
2019-02-23T16:04:34.344Z,11.30
2019-02-23T16:07:02.719Z,11.20
2019-02-23T16:09:31.122Z,11.20
2019-02-23T16:11:59.523Z,11.20
2019-02-23T16:14:27.937Z,11.10
2019-02-23T16:16:56.325Z,11.20
2019-02-23T16:19:24.717Z,11.30
2019-02-23T16:21:53.236Z,11.20
2019-02-23T16:24:21.668Z,11.30
2019-02-23T16:26:50.049Z,11.20
2019-02-23T16:29:18.478Z,11.10
2019-02-23T16:31:46.903Z,11.20
2019-02-23T16:34:15.297Z,11.00
2019-02-23T16:36:43.686Z,11.00
2019-02-23T16:39:12.079Z,11.10
2019-02-23T16:41:40.466Z,11.10
2019-02-23T16:44:08.881Z,11.00
2019-02-23T16:46:37.244Z,10.80
2019-02-23T16:49:05.624Z,10.60
2019-02-23T16:51:34.033Z,10.70
2019-02-23T16:54:02.403Z,10.60
2019-02-23T16:56:30.811Z,10.50
2019-02-23T16:58:59.192Z,10.50
2019-02-23T17:01:27.583Z,10.50
2019-02-23T17:03:55.975Z,10.40
2019-02-23T17:06:24.372Z,10.40
2019-02-23T17:08:52.762Z,10.40
2019-02-23T17:11:21.157Z,10.40
2019-02-23T17:13:50.367Z,10.40
2019-02-23T17:16:18.744Z,10.30
2019-02-23T17:18:47.163Z,10.20
2019-02-23T17:21:15.600Z,10.20
2019-02-23T17:23:43.979Z,10.10
2019-02-23T17:26:12.376Z,10.00
2019-02-23T17:28:40.775Z,9.90
2019-02-23T17:31:09.151Z,9.80
2019-02-23T17:33:37.528Z,9.70
2019-02-23T17:36:05.921Z,9.70
2019-02-23T17:38:34.300Z,9.50
2019-02-23T17:41:02.684Z,9.40
2019-02-23T17:43:31.065Z,9.40
2019-02-23T17:45:59.457Z,9.30
2019-02-23T17:48:27.831Z,9.30
2019-02-23T17:50:56.602Z,9.20
2019-02-23T17:53:25.049Z,9.00
2019-02-23T17:55:53.439Z,9.00
2019-02-23T17:58:21.828Z,8.90
2019-02-23T18:00:50.199Z,8.90
2019-02-23T18:03:18.592Z,8.90
2019-02-23T18:05:46.974Z,8.90
2019-02-23T18:08:15.368Z,8.80
2019-02-23T18:10:43.744Z,8.80
2019-02-23T18:13:12.166Z,8.70
2019-02-23T18:15:40.543Z,8.60
2019-02-23T18:18:08.932Z,8.60
2019-02-23T18:20:37.346Z,8.50
2019-02-23T18:23:05.707Z,8.40
2019-02-23T18:25:34.095Z,8.40
2019-02-23T18:28:02.476Z,8.40
2019-02-23T18:30:30.858Z,8.30
2019-02-23T18:32:59.256Z,8.30
2019-02-23T18:35:30.677Z,8.30
2019-02-23T18:37:59.066Z,8.30
2019-02-23T18:40:27.449Z,8.30
2019-02-23T18:42:55.835Z,8.10
2019-02-23T18:45:24.216Z,8.10
2019-02-23T18:47:52.629Z,8.00
2019-02-23T18:50:21.791Z,8.00
2019-02-23T18:52:50.260Z,7.90
2019-02-23T18:55:18.640Z,7.90
2019-02-23T18:57:47.040Z,7.80
2019-02-23T19:00:23.995Z,7.80
2019-02-23T19:02:45.619Z,7.80
2019-02-23T19:05:14.068Z,7.80
2019-02-23T19:07:42.461Z,7.70
2019-02-23T19:10:12.892Z,7.70
2019-02-23T19:12:41.352Z,7.70
2019-02-23T19:15:12.047Z,7.70
2019-02-23T19:17:40.503Z,7.60
2019-02-23T19:20:13.783Z,7.60
2019-02-23T19:22:42.183Z,7.60
2019-02-23T19:25:11.347Z,7.50
2019-02-23T19:27:39.731Z,7.50
2019-02-23T19:30:11.327Z,7.40
2019-02-23T19:32:39.708Z,7.40
2019-02-23T19:35:08.346Z,7.40
2019-02-23T19:37:36.727Z,7.30
2019-02-23T19:40:07.652Z,7.20
2019-02-23T19:42:36.030Z,7.20
2019-02-23T19:45:09.396Z,7.20
2019-02-23T19:47:38.911Z,7.20
2019-02-23T19:50:10.427Z,7.10
2019-02-23T19:52:38.806Z,7.00
2019-02-23T19:55:10.432Z,6.90
2019-02-23T19:57:38.814Z,7.00
2019-02-23T20:00:09.344Z,6.90
2019-02-23T20:02:36.951Z,6.90
2019-02-23T20:05:07.884Z,6.90
2019-02-23T20:07:36.260Z,6.90
2019-02-23T20:10:07.398Z,6.80
2019-02-23T20:12:35.771Z,6.80
2019-02-23T20:15:06.012Z,6.70
2019-02-23T20:17:34.387Z,6.80
2019-02-23T20:20:03.048Z,6.80
2019-02-23T20:22:31.427Z,6.70
2019-02-23T20:24:59.819Z,6.70
2019-02-23T20:27:28.204Z,6.60
2019-02-23T20:29:56.588Z,6.60
2019-02-23T20:32:25.044Z,6.60
2019-02-23T20:34:53.437Z,6.50
2019-02-23T20:37:21.824Z,6.40
2019-02-23T20:39:50.220Z,6.40
2019-02-23T20:42:18.612Z,6.40
2019-02-23T20:44:47.000Z,6.40
2019-02-23T20:47:17.213Z,6.40
2019-02-23T20:49:45.504Z,6.30
2019-02-23T20:52:13.892Z,6.30
2019-02-23T20:54:43.829Z,6.30
2019-02-23T20:57:13.948Z,6.20
2019-02-23T20:59:42.457Z,6.20
2019-02-23T21:02:12.388Z,6.10
2019-02-23T21:04:40.769Z,6.10
2019-02-23T21:07:09.162Z,5.90
2019-02-23T21:09:37.616Z,6.00
2019-02-23T21:12:06.016Z,6.00
2019-02-23T21:14:34.392Z,5.90
2019-02-23T21:17:02.788Z,6.00
2019-02-23T21:19:31.171Z,6.00
2019-02-23T21:21:59.580Z,6.00
2019-02-23T21:24:27.964Z,5.90
2019-02-23T21:26:56.357Z,5.90
2019-02-23T21:29:24.736Z,5.80
2019-02-23T21:31:53.121Z,5.80
2019-02-23T21:34:21.500Z,5.70
2019-02-23T21:36:49.892Z,5.70
2019-02-23T21:39:18.281Z,5.70
2019-02-23T21:41:46.699Z,5.60
2019-02-23T21:44:15.052Z,5.60
2019-02-23T21:46:43.455Z,5.60
2019-02-23T21:49:11.838Z,5.50
2019-02-23T21:51:40.237Z,5.60
2019-02-23T21:54:10.360Z,5.60
2019-02-23T21:56:38.738Z,5.50
2019-02-23T21:59:07.128Z,5.40
2019-02-23T22:01:35.516Z,5.40
2019-02-23T22:04:03.903Z,5.30
2019-02-23T22:06:32.300Z,5.40
2019-02-23T22:09:00.684Z,5.30
2019-02-23T22:11:29.085Z,5.30
2019-02-23T22:13:57.444Z,5.20
2019-02-23T22:16:25.837Z,5.20
2019-02-23T22:18:54.225Z,5.20
2019-02-23T22:21:22.620Z,5.20
2019-02-23T22:23:50.984Z,5.20
2019-02-23T22:26:19.376Z,5.20
2019-02-23T22:28:47.757Z,5.10
2019-02-23T22:31:16.136Z,5.10
2019-02-23T22:33:44.536Z,5.00
2019-02-23T22:36:12.912Z,5.00
2019-02-23T22:38:41.307Z,5.00
2019-02-23T22:41:09.679Z,5.00
2019-02-23T22:43:38.072Z,5.00
2019-02-23T22:46:06.452Z,5.00
2019-02-23T22:48:34.841Z,5.00
2019-02-23T22:51:03.222Z,4.90
2019-02-23T22:53:31.613Z,4.90
2019-02-23T22:55:59.984Z,4.90
2019-02-23T22:58:28.372Z,4.80
2019-02-23T23:00:58.393Z,4.90
2019-02-23T23:03:26.784Z,4.80
2019-02-23T23:05:55.166Z,4.80
2019-02-23T23:08:23.567Z,4.70
2019-02-23T23:10:51.944Z,4.60
2019-02-23T23:13:20.343Z,4.60
2019-02-23T23:15:48.727Z,4.60
2019-02-23T23:18:17.126Z,4.60
2019-02-23T23:20:45.491Z,4.60
2019-02-23T23:23:13.884Z,4.50
2019-02-23T23:25:42.260Z,4.40
2019-02-23T23:28:10.662Z,4.40
2019-02-23T23:30:39.036Z,4.40
2019-02-23T23:33:07.424Z,4.40
2019-02-23T23:35:35.802Z,4.30
2019-02-23T23:38:04.189Z,4.30
2019-02-23T23:40:32.635Z,4.40
2019-02-23T23:43:01.034Z,4.20
2019-02-23T23:45:29.408Z,4.20
2019-02-23T23:47:57.796Z,4.20
2019-02-23T23:50:26.171Z,4.10
2019-02-23T23:52:54.567Z,4.10
2019-02-23T23:55:23.008Z,4.20
2019-02-23T23:57:58.077Z,4.20
